Time;durP1;ratioP1;P1;durP2;ratioP2;P2;SDS_P1;SDS_P2;PMS_P1;PMS_P2;Temp;Humidity;BMP_temperature;BMP_pressure;BME280_temperature;BME280_humidity;BME280_pressure;Samples;Min_cycle;Max_cycle;Signal;HPM_P1;HPM_P2
2022/04/16 00:01:27;;;;;;;2.40;1.97;;;;;;;;;;7371600;19;20375;-88
2022/04/16 00:03:57;;;;;;;2.30;1.87;;;;;;;;;;7373094;19;20396;-87
2022/04/16 00:06:28;;;;;;;2.73;2.20;;;;;;;;;;7373308;19;20479;-87
2022/04/16 00:09:01;;;;;;;1.67;1.43;;;;;;;;;;7372158;19;21309;-88
2022/04/16 00:11:33;;;;;;;2.20;2.00;;;;;;;;;;7371103;19;20415;-88
2022/04/16 00:14:05;;;;;;;2.10;1.90;;;;;;;;;;7370795;19;20508;-87
2022/04/16 00:16:37;;;;;;;2.50;2.30;;;;;;;;;;7364399;19;20442;-76
2022/04/16 00:19:12;;;;;;;3.10;1.90;;;;;;;;;;7353699;19;20512;-76
2022/04/16 00:21:42;;;;;;;2.10;1.93;;;;;;;;;;7369048;19;20396;-76
2022/04/16 00:24:14;;;;;;;2.23;1.83;;;;;;;;;;7373954;19;20403;-76
2022/04/16 00:26:46;;;;;;;3.57;2.40;;;;;;;;;;7370450;19;20435;-76
2022/04/16 00:29:16;;;;;;;2.30;2.00;;;;;;;;;;7373826;19;20492;-76
2022/04/16 00:31:48;;;;;;;2.67;1.90;;;;;;;;;;7369451;19;20908;-76
2022/04/16 00:34:19;;;;;;;2.17;1.73;;;;;;;;;;7373154;19;20416;-76
2022/04/16 00:36:49;;;;;;;1.77;1.67;;;;;;;;;;7371060;19;20359;-76
2022/04/16 00:39:21;;;;;;;1.70;1.60;;;;;;;;;;7365108;19;20412;-76
2022/04/16 00:41:51;;;;;;;2.10;1.90;;;;;;;;;;7373521;19;20416;-76
2022/04/16 00:44:23;;;;;;;3.20;1.87;;;;;;;;;;7373452;19;20382;-77
2022/04/16 00:46:55;;;;;;;2.17;1.60;;;;;;;;;;7369121;19;20851;-76
2022/04/16 00:49:27;;;;;;;2.47;1.60;;;;;;;;;;7369092;19;20527;-76
2022/04/16 00:51:57;;;;;;;1.70;1.60;;;;;;;;;;7375219;19;20392;-76
2022/04/16 00:54:31;;;;;;;2.30;2.10;;;;;;;;;;7374334;19;21157;-76
2022/04/16 00:57:01;;;;;;;2.23;1.63;;;;;;;;;;7371232;19;20407;-76
2022/04/16 00:59:32;;;;;;;2.20;1.83;;;;;;;;;;7373512;19;20437;-76
2022/04/16 01:02:02;;;;;;;2.80;1.57;;;;;;;;;;7372736;19;20368;-76
2022/04/16 01:04:36;;;;;;;2.40;1.70;;;;;;;;;;7368601;19;20379;-76
2022/04/16 01:07:09;;;;;;;1.87;1.70;;;;;;;;;;7357790;19;20443;-76
2022/04/16 01:09:41;;;;;;;1.50;1.40;;;;;;;;;;7359585;19;20418;-76
2022/04/16 01:12:11;;;;;;;1.60;1.50;;;;;;;;;;7374762;19;20956;-76
2022/04/16 01:14:43;;;;;;;1.80;1.70;;;;;;;;;;7369644;19;20401;-76
2022/04/16 01:17:13;;;;;;;2.67;1.67;;;;;;;;;;7367914;19;20407;-76
2022/04/16 01:19:43;;;;;;;1.60;1.50;;;;;;;;;;7371228;19;20420;-87
2022/04/16 01:22:20;;;;;;;2.13;1.83;;;;;;;;;;7374103;19;20452;-87
2022/04/16 01:24:54;;;;;;;7.63;1.93;;;;;;;;;;7370406;19;20394;-87
2022/04/16 01:27:26;;;;;;;1.40;1.30;;;;;;;;;;7368913;19;20405;-87
2022/04/16 01:29:57;;;;;;;2.50;2.30;;;;;;;;;;7371956;19;20447;-87
2022/04/16 01:32:29;;;;;;;1.70;1.60;;;;;;;;;;7372968;19;20412;-88
2022/04/16 01:34:59;;;;;;;2.70;2.30;;;;;;;;;;7373355;19;20396;-88
2022/04/16 01:37:31;;;;;;;1.90;1.80;;;;;;;;;;7370129;19;20413;-86
2022/04/16 01:40:07;;;;;;;1.90;1.40;;;;;;;;;;7372482;19;20431;-87
2022/04/16 01:42:39;;;;;;;2.10;1.80;;;;;;;;;;7373080;19;20401;-87
2022/04/16 01:45:17;;;;;;;2.20;1.73;;;;;;;;;;7371516;19;20354;-87
2022/04/16 01:47:51;;;;;;;3.00;2.00;;;;;;;;;;7367988;19;21337;-88
2022/04/16 01:50:22;;;;;;;2.13;1.80;;;;;;;;;;7375129;19;20413;-86
2022/04/16 01:52:52;;;;;;;3.73;1.90;;;;;;;;;;7370172;19;20496;-87
2022/04/16 01:55:26;;;;;;;4.07;1.93;;;;;;;;;;7367233;19;20972;-87
2022/04/16 01:57:55;;;;;;;2.53;1.57;;;;;;;;;;7372737;19;20394;-87
2022/04/16 02:00:30;;;;;;;2.37;1.90;;;;;;;;;;7370982;19;20374;-87
2022/04/16 02:03:03;;;;;;;3.23;1.97;;;;;;;;;;7371508;19;20396;-87
2022/04/16 02:05:33;;;;;;;2.33;2.13;;;;;;;;;;7371209;19;20384;-87
2022/04/16 02:08:06;;;;;;;2.80;2.23;;;;;;;;;;7371211;19;20467;-87
2022/04/16 02:10:40;;;;;;;3.07;1.87;;;;;;;;;;7371158;19;20388;-87
2022/04/16 02:13:10;;;;;;;3.00;1.97;;;;;;;;;;7375084;19;20728;-86
2022/04/16 02:15:42;;;;;;;2.07;1.70;;;;;;;;;;7412067;19;20415;-88
2022/04/16 02:18:12;;;;;;;2.57;1.83;;;;;;;;;;7409203;19;20383;-88
2022/04/16 02:20:44;;;;;;;3.00;1.80;;;;;;;;;;7395080;19;21137;-77
2022/04/16 02:23:14;;;;;;;2.30;1.90;;;;;;;;;;7375163;19;20396;-77
2022/04/16 02:25:46;;;;;;;2.73;2.20;;;;;;;;;;7381704;19;20435;-77
2022/04/16 02:28:19;;;;;;;2.77;1.90;;;;;;;;;;7381319;19;20391;-77
2022/04/16 02:30:53;;;;;;;4.87;2.07;;;;;;;;;;7376549;19;20419;-78
2022/04/16 02:33:27;;;;;;;2.43;1.90;;;;;;;;;;7365757;19;20958;-76
2022/04/16 02:35:58;;;;;;;2.13;1.93;;;;;;;;;;7369409;19;20348;-76
2022/04/16 02:38:30;;;;;;;2.37;2.07;;;;;;;;;;7375307;19;20443;-76
2022/04/16 02:41:05;;;;;;;2.20;2.00;;;;;;;;;;7370429;19;20504;-77
2022/04/16 02:43:34;;;;;;;1.60;1.40;;;;;;;;;;7371082;19;20362;-76
2022/04/16 02:48:46;;;;;;;1.67;1.40;;;;;;;;;;7372714;19;20371;-77
2022/04/16 02:51:20;;;;;;;2.53;2.07;;;;;;;;;;7384095;19;20451;-87
2022/04/16 02:53:54;;;;;;;2.07;1.87;;;;;;;;;;7389723;19;20495;-87
2022/04/16 02:56:26;;;;;;;2.70;2.10;;;;;;;;;;7387233;19;20364;-87
2022/04/16 02:58:58;;;;;;;2.20;1.90;;;;;;;;;;7381245;19;20363;-86
2022/04/16 03:01:49;;;;;;;3.10;1.77;;;;;;;;;;7383842;19;20408;-87
2022/04/16 03:04:18;;;;;;;2.50;2.10;;;;;;;;;;7378171;19;20415;-88
2022/04/16 03:06:51;;;;;;;1.80;1.60;;;;;;;;;;7380727;19;20911;-88
2022/04/16 03:09:22;;;;;;;2.03;1.83;;;;;;;;;;7378225;19;20407;-88
2022/04/16 03:12:02;;;;;;;2.40;1.80;;;;;;;;;;7379036;19;20362;-88
2022/04/16 03:19:59;;;;;;;2.67;2.00;;;;;;;;;;7374238;19;20395;-87
2022/04/16 03:22:31;;;;;;;3.00;1.93;;;;;;;;;;7377855;19;20437;-86
2022/04/16 03:25:07;;;;;;;3.10;2.57;;;;;;;;;;7372658;19;20390;-87
2022/04/16 03:27:41;;;;;;;2.03;1.80;;;;;;;;;;7375175;19;20457;-87
2022/04/16 03:30:12;;;;;;;2.67;2.43;;;;;;;;;;7374930;19;20396;-87
2022/04/16 03:32:42;;;;;;;2.17;1.87;;;;;;;;;;7372908;19;20408;-87
2022/04/16 03:35:12;;;;;;;3.00;2.40;;;;;;;;;;7373097;19;20384;-87
2022/04/16 03:37:46;;;;;;;3.70;2.37;;;;;;;;;;7375248;19;20423;-87
2022/04/16 03:40:19;;;;;;;2.30;2.00;;;;;;;;;;7374873;19;21252;-87
2022/04/16 03:42:55;;;;;;;2.20;2.00;;;;;;;;;;7374760;19;20372;-87
2022/04/16 03:45:25;;;;;;;3.05;2.70;;;;;;;;;;7373801;19;20407;-88
2022/04/16 03:47:55;;;;;;;2.80;2.27;;;;;;;;;;7370060;19;20143;-87
2022/04/16 03:50:27;;;;;;;2.90;2.37;;;;;;;;;;7374889;19;20415;-87
2022/04/16 03:52:59;;;;;;;2.43;2.23;;;;;;;;;;7373884;19;20395;-87
2022/04/16 04:01:04;;;;;;;2.40;2.20;;;;;;;;;;7366836;19;20407;-76
2022/04/16 04:03:36;;;;;;;2.27;2.17;;;;;;;;;;7360535;19;20430;-75
2022/04/16 04:06:06;;;;;;;8.80;2.37;;;;;;;;;;7366645;19;20384;-75
2022/04/16 04:08:36;;;;;;;2.40;2.20;;;;;;;;;;7361251;19;20876;-76
2022/04/16 04:11:05;;;;;;;2.50;2.20;;;;;;;;;;7367266;19;20371;-75
2022/04/16 04:13:48;;;;;;;4.20;2.40;;;;;;;;;;7365924;19;21698;-75
2022/04/16 04:16:19;;;;;;;2.77;2.17;;;;;;;;;;7362650;19;20413;-75
2022/04/16 04:18:48;;;;;;;3.00;2.40;;;;;;;;;;7367221;19;20472;-75
2022/04/16 04:21:18;;;;;;;2.77;2.23;;;;;;;;;;7366580;19;20403;-76
2022/04/16 04:23:50;;;;;;;2.10;1.77;;;;;;;;;;7365387;19;20388;-75
2022/04/16 04:26:20;;;;;;;2.77;2.20;;;;;;;;;;7366051;19;20464;-75
2022/04/16 04:28:54;;;;;;;3.73;2.87;;;;;;;;;;7364290;19;20410;-75
2022/04/16 04:31:26;;;;;;;3.40;2.83;;;;;;;;;;7360390;19;20410;-75
2022/04/16 04:33:57;;;;;;;3.10;2.53;;;;;;;;;;7365863;19;20412;-76
2022/04/16 04:36:50;;;;;;;3.30;2.70;;;;;;;;;;7368511;19;20435;-75
2022/04/16 04:39:20;;;;;;;3.80;3.00;;;;;;;;;;7364541;19;20496;-75
2022/04/16 04:41:49;;;;;;;3.03;2.73;;;;;;;;;;7366275;19;20249;-75
2022/04/16 04:44:21;;;;;;;2.80;2.37;;;;;;;;;;7366801;19;20489;-75
2022/04/16 04:46:53;;;;;;;4.67;3.43;;;;;;;;;;7363430;19;21176;-75
2022/04/16 04:49:25;;;;;;;3.97;2.90;;;;;;;;;;7362928;19;21078;-75
2022/04/16 04:51:54;;;;;;;2.90;2.60;;;;;;;;;;7359366;19;21169;-75
2022/04/16 04:54:24;;;;;;;3.17;2.73;;;;;;;;;;7363338;19;20411;-75
2022/04/16 04:56:56;;;;;;;3.60;2.80;;;;;;;;;;7364077;19;20412;-75
2022/04/16 04:59:30;;;;;;;3.40;2.70;;;;;;;;;;7360697;19;20395;-75
2022/04/16 05:02:05;;;;;;;3.70;2.93;;;;;;;;;;7360813;19;20386;-75
2022/04/16 05:04:37;;;;;;;3.27;2.90;;;;;;;;;;7361702;19;20391;-75
2022/04/16 05:07:16;;;;;;;2.80;2.60;;;;;;;;;;7370771;19;20420;-75
2022/04/16 05:09:51;;;;;;;3.00;2.70;;;;;;;;;;7371428;19;20425;-76
2022/04/16 05:12:25;;;;;;;4.10;3.10;;;;;;;;;;7373193;19;22028;-75
2022/04/16 05:14:58;;;;;;;4.60;3.13;;;;;;;;;;7369917;19;20455;-75
2022/04/16 05:17:37;;;;;;;3.57;2.87;;;;;;;;;;7367609;19;20379;-75
2022/04/16 05:20:09;;;;;;;3.60;2.80;;;;;;;;;;7369865;19;20843;-75
2022/04/16 05:22:41;;;;;;;3.27;2.87;;;;;;;;;;7370056;19;21105;-76
2022/04/16 05:25:13;;;;;;;11.10;3.27;;;;;;;;;;7373804;19;21274;-76
2022/04/16 05:27:42;;;;;;;4.90;3.33;;;;;;;;;;7367642;19;21274;-76
2022/04/16 05:30:22;;;;;;;3.63;3.00;;;;;;;;;;7360658;19;21760;-75
2022/04/16 05:32:53;;;;;;;3.40;2.60;;;;;;;;;;7369510;19;20408;-76
2022/04/16 05:35:24;;;;;;;4.60;2.70;;;;;;;;;;7371971;19;20400;-76
2022/04/16 05:37:59;;;;;;;3.30;2.97;;;;;;;;;;7374258;19;20431;-76
2022/04/16 05:40:28;;;;;;;3.33;3.00;;;;;;;;;;7370753;19;20389;-76
2022/04/16 05:43:02;;;;;;;3.90;2.60;;;;;;;;;;7372061;19;20427;-76
2022/04/16 05:45:37;;;;;;;2.93;2.57;;;;;;;;;;7369101;19;20920;-76
2022/04/16 05:48:09;;;;;;;3.57;3.07;;;;;;;;;;7377706;19;20423;-77
2022/04/16 05:50:39;;;;;;;3.43;2.57;;;;;;;;;;7377295;19;20424;-75
2022/04/16 05:53:13;;;;;;;3.60;3.00;;;;;;;;;;7373096;19;20454;-75
2022/04/16 05:55:50;;;;;;;3.00;2.80;;;;;;;;;;7377689;19;20403;-75
2022/04/16 05:58:22;;;;;;;3.70;2.70;;;;;;;;;;7374160;19;20755;-75
2022/04/16 06:00:54;;;;;;;3.80;2.90;;;;;;;;;;7371715;19;20428;-75
2022/04/16 06:03:26;;;;;;;3.10;2.80;;;;;;;;;;7372177;19;20430;-75
2022/04/16 06:05:57;;;;;;;3.03;2.60;;;;;;;;;;7373823;19;21014;-76
2022/04/16 06:08:31;;;;;;;3.20;2.90;;;;;;;;;;7375738;19;20420;-76
2022/04/16 06:11:04;;;;;;;3.70;2.90;;;;;;;;;;7378293;19;20479;-75
2022/04/16 06:13:33;;;;;;;3.20;2.90;;;;;;;;;;7381619;19;20372;-76
2022/04/16 06:16:09;;;;;;;4.27;3.33;;;;;;;;;;7376336;19;20404;-76
2022/04/16 06:18:38;;;;;;;3.97;3.20;;;;;;;;;;7387936;19;20404;-76
2022/04/16 06:21:08;;;;;;;3.87;3.57;;;;;;;;;;7387685;19;20412;-75
2022/04/16 06:23:40;;;;;;;3.60;2.77;;;;;;;;;;7386094;19;20405;-76
2022/04/16 06:26:09;;;;;;;3.20;2.90;;;;;;;;;;7374363;19;20403;-76
2022/04/16 06:28:39;;;;;;;5.77;3.60;;;;;;;;;;7374130;19;20437;-76
2022/04/16 06:31:14;;;;;;;3.00;2.70;;;;;;;;;;7366925;19;20416;-76
2022/04/16 06:33:44;;;;;;;3.80;2.80;;;;;;;;;;7373253;19;20521;-76
2022/04/16 06:36:15;;;;;;;3.23;2.93;;;;;;;;;;7368267;19;20405;-76
2022/04/16 06:38:50;;;;;;;4.20;2.73;;;;;;;;;;7371525;19;20421;-75
2022/04/16 06:41:20;;;;;;;2.83;2.53;;;;;;;;;;7370973;19;20509;-75
2022/04/16 06:43:52;;;;;;;3.50;3.20;;;;;;;;;;7370939;19;20518;-75
2022/04/16 06:46:24;;;;;;;3.70;3.30;;;;;;;;;;7367460;19;20394;-76
2022/04/16 06:48:54;;;;;;;4.20;3.10;;;;;;;;;;7369664;19;20434;-76
2022/04/16 06:51:30;;;;;;;4.53;3.23;;;;;;;;;;7371394;19;20978;-75
2022/04/16 06:53:59;;;;;;;4.10;3.23;;;;;;;;;;7371663;19;20379;-75
2022/04/16 06:56:31;;;;;;;3.30;3.00;;;;;;;;;;7365240;19;20974;-72
2022/04/16 06:59:05;;;;;;;3.90;3.40;;;;;;;;;;7365974;19;20395;-72
2022/04/16 07:01:37;;;;;;;5.73;3.40;;;;;;;;;;7366118;19;20391;-72
2022/04/16 07:04:12;;;;;;;5.00;3.23;;;;;;;;;;7357332;19;20419;-72
2022/04/16 07:06:44;;;;;;;3.40;3.10;;;;;;;;;;7354430;19;20400;-72
2022/04/16 07:09:16;;;;;;;3.73;3.43;;;;;;;;;;7361450;19;20400;-72
2022/04/16 07:11:45;;;;;;;4.40;3.90;;;;;;;;;;7369226;19;22070;-75
2022/04/16 07:14:15;;;;;;;3.70;3.30;;;;;;;;;;7360269;19;20405;-72
2022/04/16 07:16:52;;;;;;;3.83;3.20;;;;;;;;;;7351233;19;20791;-72
2022/04/16 07:19:24;;;;;;;5.07;3.97;;;;;;;;;;7351304;19;20391;-74
2022/04/16 07:21:54;;;;;;;4.80;3.30;;;;;;;;;;7365107;19;21005;-73
2022/04/16 07:24:25;;;;;;;5.33;3.50;;;;;;;;;;7361980;19;21134;-72
2022/04/16 07:26:56;;;;;;;4.03;3.30;;;;;;;;;;7350863;19;20405;-76
2022/04/16 07:29:29;;;;;;;3.63;3.20;;;;;;;;;;7356724;19;20405;-73
2022/04/16 07:32:01;;;;;;;3.40;3.07;;;;;;;;;;7353601;19;20388;-72
2022/04/16 07:34:33;;;;;;;3.50;3.20;;;;;;;;;;7337506;19;20399;-74
2022/04/16 07:37:06;;;;;;;3.70;2.80;;;;;;;;;;7357042;19;20436;-74
2022/04/16 07:39:38;;;;;;;3.83;3.43;;;;;;;;;;7369202;19;20869;-82
2022/04/16 07:42:08;;;;;;;4.50;4.00;;;;;;;;;;7354133;19;21609;-79
2022/04/16 07:44:40;;;;;;;3.43;3.13;;;;;;;;;;7363636;19;20415;-80
2022/04/16 07:47:38;;;;;;;3.80;3.40;;;;;;;;;;7348120;19;20392;-81
2022/04/16 07:50:09;;;;;;;5.10;3.60;;;;;;;;;;7349933;19;20420;-80
2022/04/16 07:52:38;;;;;;;4.50;4.10;;;;;;;;;;7371055;19;20420;-80
2022/04/16 07:55:11;;;;;;;6.40;3.83;;;;;;;;;;7370036;19;20394;-80
2022/04/16 07:57:41;;;;;;;9.03;4.10;;;;;;;;;;7375096;19;20395;-81
2022/04/16 08:00:12;;;;;;;7.03;4.37;;;;;;;;;;7377925;19;20384;-80
2022/04/16 08:03:01;;;;;;;5.53;3.83;;;;;;;;;;7372025;19;20431;-80
2022/04/16 08:05:33;;;;;;;6.30;3.90;;;;;;;;;;7376228;19;20957;-80
2022/04/16 08:08:09;;;;;;;10.93;4.73;;;;;;;;;;7375134;19;20387;-81
2022/04/16 08:10:41;;;;;;;6.00;4.20;;;;;;;;;;7371036;19;20775;-73
2022/04/16 08:13:13;;;;;;;8.23;4.70;;;;;;;;;;7368290;19;20376;-73
2022/04/16 08:15:42;;;;;;;7.83;4.90;;;;;;;;;;7373107;19;20368;-73
2022/04/16 08:18:16;;;;;;;5.60;4.87;;;;;;;;;;7373613;19;20387;-73
2022/04/16 08:20:48;;;;;;;6.90;4.93;;;;;;;;;;7375438;19;20414;-73
2022/04/16 08:23:20;;;;;;;5.97;4.50;;;;;;;;;;7374985;19;20410;-73
2022/04/16 08:25:52;;;;;;;6.83;5.10;;;;;;;;;;7369697;19;20755;-73
2022/04/16 08:28:22;;;;;;;7.83;5.40;;;;;;;;;;7371097;19;20443;-73
2022/04/16 08:30:54;;;;;;;6.27;4.63;;;;;;;;;;7370970;19;20435;-73
2022/04/16 08:33:29;;;;;;;8.40;5.90;;;;;;;;;;7372846;19;20384;-73
2022/04/16 08:36:03;;;;;;;8.70;5.20;;;;;;;;;;7372238;19;20511;-72
2022/04/16 08:38:32;;;;;;;5.97;4.50;;;;;;;;;;7371036;19;20405;-73
2022/04/16 08:41:04;;;;;;;8.07;5.50;;;;;;;;;;7373291;19;20491;-73
2022/04/16 08:43:34;;;;;;;6.73;4.80;;;;;;;;;;7382180;19;20541;-73
2022/04/16 08:46:09;;;;;;;7.30;4.90;;;;;;;;;;7379551;19;20504;-73
2022/04/16 08:48:41;;;;;;;6.20;4.73;;;;;;;;;;7378963;19;20824;-73
2022/04/16 08:51:15;;;;;;;6.53;5.40;;;;;;;;;;7381743;19;21099;-80
2022/04/16 08:53:45;;;;;;;5.07;4.30;;;;;;;;;;7380633;19;20431;-78
2022/04/16 08:56:17;;;;;;;9.20;5.13;;;;;;;;;;7412163;19;20408;-82
2022/04/16 08:58:47;;;;;;;8.20;5.67;;;;;;;;;;7418932;19;20664;-81
2022/04/16 09:01:16;;;;;;;4.83;4.30;;;;;;;;;;7416011;19;20412;-80
2022/04/16 09:03:55;;;;;;;7.80;5.00;;;;;;;;;;7413815;19;20392;-80
2022/04/16 09:06:28;;;;;;;6.60;5.00;;;;;;;;;;7414577;19;20380;-81
2022/04/16 09:09:12;;;;;;;7.30;5.20;;;;;;;;;;7412933;19;20427;-80
2022/04/16 09:11:46;;;;;;;7.00;5.50;;;;;;;;;;7417594;19;20356;-80
2022/04/16 09:14:35;;;;;;;6.30;5.17;;;;;;;;;;7417156;19;20888;-79
2022/04/16 09:17:11;;;;;;;8.07;5.53;;;;;;;;;;7414061;19;21734;-80
2022/04/16 09:19:45;;;;;;;6.00;5.10;;;;;;;;;;7422827;19;20395;-82
2022/04/16 09:22:15;;;;;;;7.13;6.03;;;;;;;;;;7401818;19;20420;-87
2022/04/16 09:24:48;;;;;;;9.10;6.63;;;;;;;;;;7394637;19;21086;-87
2022/04/16 09:27:20;;;;;;;7.53;6.33;;;;;;;;;;7382071;19;20983;-87
2022/04/16 09:29:49;;;;;;;9.40;7.03;;;;;;;;;;7381242;19;20416;-87
2022/04/16 09:32:26;;;;;;;9.87;6.63;;;;;;;;;;7382782;19;20408;-87
2022/04/16 09:34:58;;;;;;;8.17;6.53;;;;;;;;;;7379625;19;21158;-87
2022/04/16 09:37:30;;;;;;;7.90;6.13;;;;;;;;;;7378912;19;21325;-87
2022/04/16 09:39:59;;;;;;;8.97;6.30;;;;;;;;;;7380345;19;21183;-87
2022/04/16 09:42:32;;;;;;;6.77;5.70;;;;;;;;;;7377686;19;20412;-88
2022/04/16 09:45:02;;;;;;;7.43;5.90;;;;;;;;;;7374844;19;20420;-84
2022/04/16 09:47:37;;;;;;;7.10;5.20;;;;;;;;;;7371735;19;20415;-86
2022/04/16 09:50:13;;;;;;;7.60;6.10;;;;;;;;;;7365963;19;20432;-86
2022/04/16 09:52:49;;;;;;;6.83;5.53;;;;;;;;;;7362564;19;20411;-85
2022/04/16 09:55:19;;;;;;;7.03;5.80;;;;;;;;;;7376334;19;20451;-85
2022/04/16 09:57:49;;;;;;;9.00;5.43;;;;;;;;;;7377467;19;20404;-86
2022/04/16 10:00:21;;;;;;;8.57;6.60;;;;;;;;;;7378464;19;20428;-86
2022/04/16 10:02:53;;;;;;;9.13;6.53;;;;;;;;;;7379102;19;20392;-86
2022/04/16 10:05:26;;;;;;;10.20;6.10;;;;;;;;;;7379052;19;20392;-86
2022/04/16 10:07:57;;;;;;;7.13;5.37;;;;;;;;;;7376370;19;21141;-86
2022/04/16 10:10:36;;;;;;;7.40;5.80;;;;;;;;;;7381477;19;20990;-86
2022/04/16 10:13:07;;;;;;;6.93;5.27;;;;;;;;;;7378140;19;21141;-86
2022/04/16 10:15:44;;;;;;;7.43;5.53;;;;;;;;;;7378511;19;20372;-86
2022/04/16 10:18:14;;;;;;;5.80;5.00;;;;;;;;;;7376680;19;20404;-84
2022/04/16 10:20:56;;;;;;;6.30;5.10;;;;;;;;;;7377215;19;21173;-77
2022/04/16 10:23:31;;;;;;;7.10;5.03;;;;;;;;;;7374826;19;20524;-78
2022/04/16 10:26:09;;;;;;;5.23;4.60;;;;;;;;;;7376573;19;20935;-78
2022/04/16 10:28:41;;;;;;;7.43;5.57;;;;;;;;;;7376366;19;20408;-78
2022/04/16 10:31:24;;;;;;;8.20;5.90;;;;;;;;;;7373497;19;20462;-77
2022/04/16 10:34:00;;;;;;;8.70;5.80;;;;;;;;;;7378119;19;20435;-78
2022/04/16 10:36:46;;;;;;;8.00;6.33;;;;;;;;;;7375666;19;21527;-78
2022/04/16 10:39:19;;;;;;;7.97;5.67;;;;;;;;;;7378042;19;20422;-78
2022/04/16 10:41:58;;;;;;;7.40;6.30;;;;;;;;;;7373633;19;20431;-78
2022/04/16 10:44:31;;;;;;;7.63;5.57;;;;;;;;;;7373431;19;20415;-77
2022/04/16 10:47:00;;;;;;;8.97;5.63;;;;;;;;;;7375802;19;21765;-78
2022/04/16 10:49:33;;;;;;;8.10;5.77;;;;;;;;;;7372162;19;20421;-78
2022/04/16 10:52:20;;;;;;;8.17;5.70;;;;;;;;;;7372903;19;21568;-78
2022/04/16 10:55:03;;;;;;;7.00;5.10;;;;;;;;;;7376273;19;20407;-78
2022/04/16 10:57:35;;;;;;;7.50;5.27;;;;;;;;;;7375381;19;20375;-78
2022/04/16 11:00:15;;;;;;;7.77;5.23;;;;;;;;;;7375629;19;20408;-77
2022/04/16 11:02:45;;;;;;;5.70;4.73;;;;;;;;;;7374144;19;20408;-78
2022/04/16 11:05:17;;;;;;;6.80;5.13;;;;;;;;;;7373690;19;20416;-77
2022/04/16 11:07:49;;;;;;;7.50;5.13;;;;;;;;;;7371695;19;20408;-78
2022/04/16 11:10:25;;;;;;;8.20;5.97;;;;;;;;;;7375537;19;21050;-78
2022/04/16 11:12:57;;;;;;;6.77;5.10;;;;;;;;;;7376129;19;21210;-78
2022/04/16 11:15:30;;;;;;;8.93;5.27;;;;;;;;;;7373319;19;20415;-78
2022/04/16 11:18:00;;;;;;;5.93;4.20;;;;;;;;;;7377192;19;20388;-77
2022/04/16 11:20:32;;;;;;;5.50;4.43;;;;;;;;;;7375128;19;20396;-78
2022/04/16 11:23:04;;;;;;;4.43;4.00;;;;;;;;;;7372203;19;20416;-77
2022/04/16 11:34:14;;;;;;;5.10;4.30;;;;;;;;;;7375563;19;21550;-77
2022/04/16 11:36:38;;;;;;;5.10;4.00;;;;;;;;;;7375623;19;20945;-86
2022/04/16 11:39:21;;;;;;;5.50;4.03;;;;;;;;;;7374867;19;20407;-85
2022/04/16 11:41:53;;;;;;;5.97;4.10;;;;;;;;;;7373920;19;20424;-85
2022/04/16 11:44:33;;;;;;;4.80;3.90;;;;;;;;;;7376177;19;20404;-86
2022/04/16 11:47:03;;;;;;;5.47;4.27;;;;;;;;;;7378500;19;20416;-85
2022/04/16 11:49:33;;;;;;;5.00;4.40;;;;;;;;;;7375332;19;20424;-86
2022/04/16 11:52:03;;;;;;;5.47;3.90;;;;;;;;;;7375920;19;20393;-85
2022/04/16 11:54:37;;;;;;;8.67;5.27;;;;;;;;;;7374169;19;20420;-86
2022/04/16 11:57:07;;;;;;;5.90;4.90;;;;;;;;;;7375800;19;20419;-86
2022/04/16 11:59:41;;;;;;;5.93;4.43;;;;;;;;;;7376220;19;20423;-77
2022/04/16 12:02:13;;;;;;;5.63;4.27;;;;;;;;;;7384423;19;20406;-77
2022/04/16 12:04:44;;;;;;;5.67;4.60;;;;;;;;;;7395029;19;20444;-79
2022/04/16 12:07:16;;;;;;;5.77;4.07;;;;;;;;;;7395585;19;20541;-77
2022/04/16 12:09:52;;;;;;;5.10;3.93;;;;;;;;;;7396058;19;20523;-79
2022/04/16 12:12:23;;;;;;;4.83;4.00;;;;;;;;;;7389429;19;21427;-78
2022/04/16 12:14:55;;;;;;;4.63;3.83;;;;;;;;;;7390227;19;20400;-78
2022/04/16 12:17:29;;;;;;;4.90;4.00;;;;;;;;;;7395796;19;20387;-77
2022/04/16 12:19:59;;;;;;;4.87;3.87;;;;;;;;;;7393324;19;20376;-79
2022/04/16 12:22:31;;;;;;;4.07;3.20;;;;;;;;;;7394679;19;20415;-79
2022/04/16 12:25:12;;;;;;;5.10;3.90;;;;;;;;;;7401693;19;20816;-79
2022/04/16 12:27:46;;;;;;;4.60;4.03;;;;;;;;;;7398192;19;20908;-79
2022/04/16 12:30:20;;;;;;;4.13;3.70;;;;;;;;;;7384909;19;21100;-79
2022/04/16 12:32:59;;;;;;;5.40;4.33;;;;;;;;;;7380748;19;20974;-80
2022/04/16 12:35:31;;;;;;;4.50;4.10;;;;;;;;;;7378637;19;20521;-80
2022/04/16 12:38:01;;;;;;;4.63;4.23;;;;;;;;;;7378473;19;20408;-77
2022/04/16 12:40:39;;;;;;;5.10;4.57;;;;;;;;;;7380873;19;20403;-80
2022/04/16 12:43:11;;;;;;;6.10;4.87;;;;;;;;;;7381084;19;20388;-80
2022/04/16 12:45:41;;;;;;;4.97;4.47;;;;;;;;;;7381904;19;20408;-80
2022/04/16 12:48:13;;;;;;;4.33;3.93;;;;;;;;;;7377446;19;21098;-80
2022/04/16 12:50:45;;;;;;;4.63;4.07;;;;;;;;;;7377175;19;20408;-80
2022/04/16 12:53:17;;;;;;;5.47;4.60;;;;;;;;;;7379777;19;20412;-77
2022/04/16 12:55:49;;;;;;;4.10;3.50;;;;;;;;;;7379722;19;20404;-77
2022/04/16 12:58:18;;;;;;;4.10;3.80;;;;;;;;;;7377720;19;20376;-78
2022/04/16 13:00:48;;;;;;;4.80;3.73;;;;;;;;;;7377368;19;20375;-77
2022/04/16 13:03:21;;;;;;;4.37;3.93;;;;;;;;;;7380417;19;20988;-77
2022/04/16 13:05:56;;;;;;;4.30;3.90;;;;;;;;;;7379310;19;20390;-80
2022/04/16 13:08:25;;;;;;;4.70;4.30;;;;;;;;;;7380420;19;21482;-77
2022/04/16 13:11:01;;;;;;;4.90;4.40;;;;;;;;;;7378586;19;20448;-78
2022/04/16 13:13:38;;;;;;;4.40;4.00;;;;;;;;;;7377860;19;20391;-78
2022/04/16 13:16:08;;;;;;;5.33;4.50;;;;;;;;;;7379568;19;20439;-77
2022/04/16 13:18:40;;;;;;;4.27;3.87;;;;;;;;;;7351942;19;20479;-79
2022/04/16 13:21:10;;;;;;;6.30;4.10;;;;;;;;;;7376577;19;20392;-79
2022/04/16 13:23:42;;;;;;;4.37;3.97;;;;;;;;;;7378697;19;20400;-79
2022/04/16 13:26:19;;;;;;;5.17;4.20;;;;;;;;;;7376463;19;20400;-79
2022/04/16 13:28:50;;;;;;;5.00;4.17;;;;;;;;;;7379772;19;20434;-79
2022/04/16 13:31:20;;;;;;;4.47;3.90;;;;;;;;;;7378672;19;20412;-78
2022/04/16 13:33:51;;;;;;;4.70;4.00;;;;;;;;;;7379263;19;20833;-79
2022/04/16 13:36:23;;;;;;;6.10;4.27;;;;;;;;;;7377836;19;20423;-77
2022/04/16 13:38:58;;;;;;;4.77;3.67;;;;;;;;;;7381050;19;20420;-78
2022/04/16 13:41:38;;;;;;;5.80;3.97;;;;;;;;;;7377944;19;20455;-77
2022/04/16 13:44:11;;;;;;;5.57;3.37;;;;;;;;;;7374870;19;20442;-77
2022/04/16 13:46:40;;;;;;;3.20;2.77;;;;;;;;;;7379549;19;20420;-77
2022/04/16 13:49:18;;;;;;;5.13;3.73;;;;;;;;;;7377274;19;20398;-77
2022/04/16 13:51:48;;;;;;;3.70;3.30;;;;;;;;;;7378876;19;20392;-78
2022/04/16 13:54:17;;;;;;;3.40;3.07;;;;;;;;;;7376263;19;20404;-77
2022/04/16 13:56:49;;;;;;;6.63;3.80;;;;;;;;;;7375937;19;20377;-77
2022/04/16 13:59:19;;;;;;;4.90;3.60;;;;;;;;;;7373161;19;20413;-77
2022/04/16 14:01:51;;;;;;;4.37;3.60;;;;;;;;;;7376691;19;20448;-84
2022/04/16 14:04:23;;;;;;;5.50;3.90;;;;;;;;;;7375113;19;20449;-84
2022/04/16 14:06:53;;;;;;;5.10;3.20;;;;;;;;;;7379467;19;21005;-83
2022/04/16 14:09:24;;;;;;;4.57;3.50;;;;;;;;;;7379938;19;20416;-84
2022/04/16 14:11:59;;;;;;;4.67;3.40;;;;;;;;;;7378123;19;20377;-86
2022/04/16 14:14:32;;;;;;;3.60;3.30;;;;;;;;;;7377989;19;20413;-86
2022/04/16 14:17:02;;;;;;;5.10;4.00;;;;;;;;;;7377217;19;21294;-87
2022/04/16 14:19:34;;;;;;;3.70;3.07;;;;;;;;;;7378957;19;21059;-85
2022/04/16 14:22:04;;;;;;;4.83;3.07;;;;;;;;;;7378910;19;20471;-85
2022/04/16 14:24:36;;;;;;;3.73;3.20;;;;;;;;;;7379370;19;20407;-85
2022/04/16 14:27:12;;;;;;;4.50;3.57;;;;;;;;;;7376096;19;20404;-84
2022/04/16 14:29:44;;;;;;;3.63;3.20;;;;;;;;;;7377406;19;20935;-79
2022/04/16 14:32:16;;;;;;;5.13;3.50;;;;;;;;;;7372336;19;20419;-77
2022/04/16 14:34:48;;;;;;;4.37;3.57;;;;;;;;;;7378500;19;20979;-77
2022/04/16 14:37:18;;;;;;;3.03;2.77;;;;;;;;;;7375678;19;20492;-78
2022/04/16 14:39:47;;;;;;;5.73;3.10;;;;;;;;;;7377767;19;20484;-78
2022/04/16 14:42:20;;;;;;;4.53;3.40;;;;;;;;;;7375999;19;20924;-78
2022/04/16 14:44:51;;;;;;;5.87;3.20;;;;;;;;;;7377364;19;20479;-77
2022/04/16 14:47:23;;;;;;;3.50;2.90;;;;;;;;;;7375323;19;21305;-78
2022/04/16 14:49:55;;;;;;;4.37;3.37;;;;;;;;;;7384426;19;20373;-78
2022/04/16 14:52:28;;;;;;;3.63;2.93;;;;;;;;;;7394893;19;20416;-78
2022/04/16 14:55:00;;;;;;;4.50;3.30;;;;;;;;;;7398931;19;20452;-79
2022/04/16 14:57:32;;;;;;;3.87;2.80;;;;;;;;;;7400656;19;20380;-79
2022/04/16 15:00:02;;;;;;;3.23;2.93;;;;;;;;;;7399141;19;20412;-80
2022/04/16 15:02:32;;;;;;;4.90;3.30;;;;;;;;;;7397762;19;20408;-78
2022/04/16 15:05:03;;;;;;;3.37;2.73;;;;;;;;;;7399896;19;20412;-78
2022/04/16 15:07:35;;;;;;;3.67;3.17;;;;;;;;;;7389401;19;20388;-79
2022/04/16 15:10:05;;;;;;;3.70;2.80;;;;;;;;;;7386299;19;20483;-79
2022/04/16 15:12:40;;;;;;;2.77;2.40;;;;;;;;;;7383749;19;20485;-79
2022/04/16 15:15:11;;;;;;;3.07;2.63;;;;;;;;;;7391769;19;20408;-79
2022/04/16 15:17:41;;;;;;;5.53;3.20;;;;;;;;;;7388753;19;20416;-78
2022/04/16 15:20:14;;;;;;;2.80;2.60;;;;;;;;;;7392428;19;20404;-79
2022/04/16 15:22:44;;;;;;;3.17;2.60;;;;;;;;;;7390336;19;20396;-79
2022/04/16 15:25:14;;;;;;;3.40;2.73;;;;;;;;;;7387427;19;20407;-79
2022/04/16 15:27:47;;;;;;;2.87;2.43;;;;;;;;;;7388827;19;20400;-78
2022/04/16 15:30:19;;;;;;;4.17;2.40;;;;;;;;;;7394710;19;20432;-86
2022/04/16 15:32:51;;;;;;;2.97;2.27;;;;;;;;;;7413677;19;20426;-85
2022/04/16 15:35:25;;;;;;;2.57;2.37;;;;;;;;;;7411852;19;20430;-86
2022/04/16 15:37:56;;;;;;;3.40;2.37;;;;;;;;;;7399100;19;20396;-86